This is the latest recevied weather packets stored in our database for station/object VA3BOO. If no packets are shown the sender has not sent any weather packets the latest 10 day(s).
| Time | Temp. | Humidity | Pressure | Rain* | Wind** | Luminosity | Snow |
|---|---|---|---|---|---|---|---|
| 1777494605 | 11.67° C | 93% | 1007.8 hPa | 0.76 mm | - | 85 W/m² | - |
| 1777494304 | 11.67° C | 92% | 1007.8 hPa | 0.51 mm | - | 77 W/m² | - |
| 1777494004 | 11.67° C | 91% | 1007.9 hPa | 0.51 mm | - | 59 W/m² | - |
| 1777493704 | 11.67° C | 90% | 1008 hPa | 0.25 mm | - | 45 W/m² | - |
| 1777493404 | 12.22° C | 90% | 1008.3 hPa | 0 mm | - | 25 W/m² | - |
| 1777493105 | 12.22° C | 89% | 1008.3 hPa | 0 mm | - | 35 W/m² | - |
| 1777492804 | 12.22° C | 89% | 1008.4 hPa | 0 mm | - | 26 W/m² | - |
| 1777492504 | 12.22° C | 89% | 1008.4 hPa | 0 mm | - | 28 W/m² | - |
| 1777492204 | 12.22° C | 89% | 1008.5 hPa | 0 mm | - | 38 W/m² | - |
| 1777491904 | 12.22° C | 89% | 1008.9 hPa | 0 mm | - | 38 W/m² | - |
| 1777491604 | 12.22° C | 89% | 1008.9 hPa | 0 mm | - | 40 W/m² | - |
| 1777491304 | 12.22° C | 89% | 1008.9 hPa | 0 mm | - | 34 W/m² | - |
| 1777491004 | 12.22° C | 88% | 1009 hPa | 0 mm | - | 31 W/m² | - |
| 1777490704 | 12.22° C | 88% | 1008.9 hPa | 0 mm | - | 40 W/m² | - |
| 1777490404 | 12.22° C | 88% | 1009 hPa | 0 mm | - | 47 W/m² | - |
| 1777490104 | 12.22° C | 88% | 1009.1 hPa | 0 mm | - | 52 W/m² | - |
| 1777489804 | 12.22° C | 87% | 1009.1 hPa | 0 mm | - | 55 W/m² | - |
| 1777489504 | 12.22° C | 87% | 1009.2 hPa | 0 mm | - | 57 W/m² | - |
| 1777489204 | 12.78° C | 87% | 1009.4 hPa | 0 mm | - | 57 W/m² | - |
| 1777488904 | 12.78° C | 86% | 1009.3 hPa | 0 mm | - | 61 W/m² | - |
| 1777488604 | 12.78° C | 86% | 1009.4 hPa | 0 mm | - | 60 W/m² | - |
| 1777488304 | 12.78° C | 85% | 1009.5 hPa | 0 mm | - | 65 W/m² | - |
| 1777488004 | 12.78° C | 85% | 1009.3 hPa | 0 mm | - | 89 W/m² | - |
| 1777487704 | 12.78° C | 85% | 1009.1 hPa | 0 mm | - | 101 W/m² | - |
| 1777487404 | 12.78° C | 84% | 1009.4 hPa | 0 mm | - | 100 W/m² | - |
* Rain latest hour (hover to see other rain measurements)
** Current wind speed in m/s (hover to see current wind gust speed)